Wayne, NE

4:56 AM CDT on April 18, 2015 (GMT -0500)
Wayne Municipal | | Change Station
CLOSE
Current Station
Airport
Location: Wayne,
Elevation: 1430 ft
Nearby Weather Stations

Elev 1430 ft 42.24 °N, 96.98 °W | Updated 21 minutes ago

Overcast
Overcast
58 °F
Feels Like 58 °F
N
10
Wind Variable Wind from ENE

Today
High -- | Low -- °F
--% Chance of Precip.
Yesterday
High -- | Low -- °F
Precip. -- in
6:42 AM 8:12 PM
Waning Crescent, 0% visible
Pressure 29.97 in
Visibility 10.0 miles
Clouds Mostly Cloudy 6500 ft
Overcast 8000 ft
Dew Point 51 °F
Humidity 78%
Rainfall 0.02 in
Snow Depth Not available.
UV 0 out of 12
Pollen 8.80 out of 12
Air Quality Not available.
Flu Activity Local Activity
METAR KLCG 180935Z AUTO 07009KT 10SM BKN065 OVC080 14/11 A2997 RMK AO2 T01430105

More Conditions Fewer Conditions

Pressure 29.97 in
Visibility 10.0 miles
Clouds Mostly Cloudy 6500 ft
Overcast 8000 ft
Dew Point 51 °F
Humidity 78%
Rainfall 0.02 in
Snow Depth Not available.
UV 0 out of 12
Pollen 8.80 out of 12
Air Quality Not available.
Flu Activity Local Activity
METAR KLCG 180935Z AUTO 07009KT 10SM BKN065 OVC080 14/11 A2997 RMK AO2 T01430105

More Conditions Fewer Conditions

10-Day Weather Forecast

Almanac

Astronomy

Apr. 18, 2015 Rise Set
Actual Time
Civil Twilight
Nautical Twilight
Astronomical Twilight
Moon
Length of Visible Light
Length of Day
Tomorrow will be .
, % of the Moon is Illuminated

Today's Extremes

State Highs State Lows

Community

WunderPhotos

Upload Photos

1,814,350 photos uploaded!

WunderBlogs® & News

Nearby

Air Quality

  Air Quality AQ Index Pollutant
Not available.

Snow Depth

Station Depth Elevation

Earthquake Activity

City Distance Mag. Time & Date
Minimum magnitude displayed is 2.5.

Coastal Water Temperatures

Place Temperature

Stations

Nearby Weather Stations

Station Location Temp. Windchill Dew Point Humidity Wind Precip. Elev Updated Type